CheckWX is a tool to help pilots better visualize weather data.  It is not intended as a substitute for an official pre-flight weather briefing.

08:05:00 UTC

EDGS TAF
Siegerland Airport
Germany
TAF EDGS 190720Z 1908/1915 32006KT 9999 SCT030

Mar-19@
08:00 UTC

Mar-19 @ 08:00 UTC

Mar-19@
15:00 UTC

Mar-19 @ 15:00 UTC

TAF EDGS 190720Z 1908/1915 32006KT 9999 SCT030
Wind
  • 320° at 6 KTS
Cloud Levels
  • Scattered at 3,000' AGL